Time;durP1;ratioP1;P1;durP2;ratioP2;P2;SDS_P1;SDS_P2;PMS_P1;PMS_P2;Temp;Humidity;BMP_temperature;BMP_pressure;BME280_temperature;BME280_humidity;BME280_pressure;Samples;Min_cycle;Max_cycle;Signal;HPM_P1;HPM_P2
2021/10/05 00:01:32;;;;;;;1.90;1.80;;;10.60;99.90;;;;;;4988640;28;20201;-69
2021/10/05 00:04:01;;;;;;;5.57;2.10;;;10.70;99.90;;;;;;4989877;28;20268;-69
2021/10/05 00:06:28;;;;;;;2.07;1.87;;;10.70;99.90;;;;;;4992973;28;20209;-69
2021/10/05 00:08:55;;;;;;;2.97;1.70;;;10.70;99.90;;;;;;4984515;28;20237;-69
2021/10/05 00:11:22;;;;;;;2.30;2.10;;;10.80;99.90;;;;;;4989026;28;20252;-69
2021/10/05 00:13:49;;;;;;;2.73;2.00;;;10.80;99.90;;;;;;4992346;28;20264;-69
2021/10/05 00:16:16;;;;;;;3.13;2.27;;;10.90;99.90;;;;;;4997902;28;20720;-69
2021/10/05 00:18:43;;;;;;;3.20;2.83;;;10.90;99.90;;;;;;4993273;28;20205;-69
2021/10/05 00:21:11;;;;;;;2.83;2.50;;;11.00;99.90;;;;;;4992839;28;20211;-69
2021/10/05 00:23:39;;;;;;;3.50;2.03;;;11.00;99.90;;;;;;4993539;28;20229;-69
2021/10/05 00:26:06;;;;;;;3.73;2.20;;;10.90;99.90;;;;;;4997683;28;20719;-69
2021/10/05 00:28:33;;;;;;;2.23;2.00;;;10.90;99.90;;;;;;4989903;28;20208;-69
2021/10/05 00:31:00;;;;;;;2.27;2.10;;;10.90;99.90;;;;;;4988294;28;20206;-69
2021/10/05 00:33:27;;;;;;;3.17;2.20;;;10.90;99.90;;;;;;4991496;28;20225;-69
2021/10/05 00:35:54;;;;;;;2.60;2.20;;;10.90;99.90;;;;;;4991420;28;20254;-69
2021/10/05 00:38:22;;;;;;;2.93;2.50;;;10.90;99.90;;;;;;4992649;28;20231;-69
2021/10/05 00:40:49;;;;;;;2.13;2.00;;;11.00;99.90;;;;;;4989347;28;20260;-69
2021/10/05 00:43:16;;;;;;;2.90;2.60;;;10.90;99.90;;;;;;4992213;28;20663;-69
2021/10/05 00:45:43;;;;;;;3.10;2.70;;;10.90;99.90;;;;;;4992192;28;20220;-69
2021/10/05 00:48:10;;;;;;;3.97;2.80;;;10.90;99.90;;;;;;4992477;28;20260;-69
2021/10/05 00:50:38;;;;;;;3.00;2.70;;;10.80;99.90;;;;;;4991762;28;20208;-69
2021/10/05 00:53:05;;;;;;;4.57;2.50;;;10.90;99.90;;;;;;4993352;28;20236;-69
2021/10/05 00:55:36;;;;;;;3.60;2.40;;;10.80;99.90;;;;;;4993290;28;20217;-69
2021/10/05 00:58:03;;;;;;;2.53;2.00;;;11.00;99.90;;;;;;4994736;28;20244;-69
2021/10/05 01:00:30;;;;;;;2.10;1.90;;;11.00;99.90;;;;;;4993146;28;20271;-69
2021/10/05 01:02:57;;;;;;;2.97;2.23;;;11.00;99.90;;;;;;4986544;28;20204;-69
2021/10/05 01:05:25;;;;;;;4.23;2.77;;;11.00;99.90;;;;;;4988254;28;20224;-69
2021/10/05 01:07:52;;;;;;;5.97;3.63;;;11.20;99.90;;;;;;4992038;28;20271;-69
2021/10/05 01:10:19;;;;;;;5.03;3.17;;;11.30;99.90;;;;;;4992217;28;20209;-69
2021/10/05 01:12:50;;;;;;;3.70;3.00;;;11.30;99.90;;;;;;4982197;28;20205;-69
2021/10/05 01:15:17;;;;;;;5.10;2.53;;;11.30;99.90;;;;;;5000480;28;20295;-69
2021/10/05 01:17:44;;;;;;;2.37;2.17;;;11.30;99.90;;;;;;4997233;28;20209;-69
2021/10/05 01:20:12;;;;;;;2.60;2.37;;;11.20;99.90;;;;;;4991099;28;20197;-69
2021/10/05 01:22:40;;;;;;;2.37;2.17;;;11.30;99.90;;;;;;4988795;28;20264;-69
2021/10/05 01:25:11;;;;;;;1.83;1.73;;;11.60;99.90;;;;;;4990263;28;20283;-69
2021/10/05 01:27:46;;;;;;;3.03;1.90;;;11.60;99.90;;;;;;4993506;28;20208;-69
2021/10/05 01:30:13;;;;;;;1.80;1.70;;;11.50;99.90;;;;;;4990456;28;20219;-69
2021/10/05 01:32:41;;;;;;;4.00;2.33;;;11.50;99.90;;;;;;4988283;28;20248;-69
2021/10/05 01:35:08;;;;;;;3.27;2.00;;;11.50;99.90;;;;;;4986427;28;20201;-69
2021/10/05 01:37:35;;;;;;;1.83;1.73;;;11.40;99.90;;;;;;4991278;28;20667;-69
2021/10/05 01:40:05;;;;;;;2.20;1.70;;;11.50;99.90;;;;;;4989580;28;20735;-69
2021/10/05 01:42:32;;;;;;;3.13;1.87;;;11.50;99.90;;;;;;4987099;28;20233;-69
2021/10/05 01:44:59;;;;;;;2.20;2.00;;;11.40;99.90;;;;;;4989918;28;20287;-69
2021/10/05 01:47:26;;;;;;;2.33;2.00;;;11.30;99.90;;;;;;4985598;28;20205;-69
2021/10/05 01:49:53;;;;;;;3.97;2.80;;;11.30;99.90;;;;;;4990897;28;20205;-69
2021/10/05 01:52:20;;;;;;;3.97;3.00;;;11.40;99.90;;;;;;4992157;28;20233;-69
2021/10/05 01:54:47;;;;;;;2.73;2.20;;;11.30;99.90;;;;;;4981034;28;20253;-69
2021/10/05 01:57:16;;;;;;;2.17;2.07;;;11.30;99.90;;;;;;4991688;28;20294;-69
2021/10/05 01:59:43;;;;;;;2.43;2.23;;;11.20;99.90;;;;;;4979631;28;20646;-69
2021/10/05 02:02:10;;;;;;;3.17;2.23;;;11.30;99.90;;;;;;4987503;28;20201;-69
2021/10/05 02:04:38;;;;;;;3.10;2.07;;;11.30;99.90;;;;;;4988700;28;20224;-69
2021/10/05 02:07:05;;;;;;;2.40;2.20;;;11.30;99.90;;;;;;4990612;28;20659;-68
2021/10/05 02:09:32;;;;;;;2.20;2.00;;;11.40;99.90;;;;;;4981437;28;20280;-69
2021/10/05 02:11:59;;;;;;;2.83;2.50;;;11.30;99.90;;;;;;4991242;28;20247;-69
2021/10/05 02:14:27;;;;;;;3.30;2.10;;;11.20;99.90;;;;;;4977921;28;20256;-69
2021/10/05 02:16:54;;;;;;;4.17;2.70;;;11.20;99.90;;;;;;4980537;28;20210;-69
2021/10/05 02:19:21;;;;;;;3.90;2.23;;;11.10;99.90;;;;;;4990923;28;20198;-69
2021/10/05 02:21:48;;;;;;;2.50;2.30;;;11.10;99.90;;;;;;4987983;28;20646;-69
2021/10/05 02:27:00;;;;;;;2.30;2.03;;;11.20;99.90;;;;;;4985522;28;20277;-69
2021/10/05 02:29:28;;;;;;;4.07;2.50;;;11.20;99.90;;;;;;4986379;28;20201;-69
2021/10/05 02:31:55;;;;;;;2.30;2.03;;;11.20;99.90;;;;;;4988458;28;20256;-69
2021/10/05 02:34:22;;;;;;;2.43;2.23;;;11.20;99.90;;;;;;4983956;28;20205;-69
2021/10/05 02:36:49;;;;;;;4.53;2.50;;;11.20;99.90;;;;;;4990082;28;20217;-69
2021/10/05 02:39:17;;;;;;;2.20;2.00;;;11.20;99.90;;;;;;4979993;28;20686;-69
2021/10/05 02:41:44;;;;;;;4.57;2.20;;;11.00;99.90;;;;;;4996251;28;20205;-69
2021/10/05 02:44:11;;;;;;;2.50;2.30;;;11.10;99.90;;;;;;4989016;28;20267;-69
2021/10/05 02:46:39;;;;;;;2.97;2.30;;;11.10;99.90;;;;;;4989577;28;20226;-69
2021/10/05 02:49:06;;;;;;;3.73;2.37;;;11.10;99.90;;;;;;4990565;28;20256;-69
2021/10/05 02:51:34;;;;;;;2.77;2.43;;;11.10;99.90;;;;;;4991277;28;20197;-69
2021/10/05 02:54:01;;;;;;;3.27;2.07;;;11.20;99.90;;;;;;4998963;28;20209;-68
2021/10/05 02:56:28;;;;;;;2.77;2.57;;;11.20;99.90;;;;;;4980641;28;20241;-68
2021/10/05 02:58:55;;;;;;;2.47;2.30;;;11.20;99.90;;;;;;4992066;28;20197;-69
2021/10/05 03:01:22;;;;;;;2.50;2.30;;;11.30;99.90;;;;;;4989918;28;20201;-69
2021/10/05 03:03:50;;;;;;;3.07;2.33;;;11.20;99.90;;;;;;4992154;28;20409;-69
2021/10/05 03:06:18;;;;;;;2.30;2.10;;;11.20;99.90;;;;;;4991599;28;20624;-69
2021/10/05 03:08:45;;;;;;;2.27;2.00;;;11.30;99.90;;;;;;4991002;28;20201;-69
2021/10/05 03:11:12;;;;;;;2.20;2.00;;;11.40;99.90;;;;;;4993162;28;20614;-69
2021/10/05 03:13:40;;;;;;;2.30;1.83;;;11.40;99.90;;;;;;4988493;28;20979;-68
2021/10/05 03:16:08;;;;;;;3.37;2.30;;;11.40;99.90;;;;;;4981089;28;20611;-69
2021/10/05 03:18:35;;;;;;;2.80;2.30;;;11.50;99.90;;;;;;4994562;28;20542;-69
2021/10/05 03:21:04;;;;;;;2.40;2.20;;;11.60;99.90;;;;;;4999153;28;20273;-68
2021/10/05 03:23:31;;;;;;;3.93;2.63;;;11.60;99.90;;;;;;4988067;28;20237;-69
2021/10/05 03:25:58;;;;;;;3.97;2.80;;;11.60;99.90;;;;;;4993007;28;20225;-68
2021/10/05 03:28:25;;;;;;;2.50;2.30;;;11.60;99.90;;;;;;4993322;28;20650;-68
2021/10/05 03:30:52;;;;;;;4.37;2.33;;;11.60;99.90;;;;;;4992320;28;20205;-69
2021/10/05 03:33:19;;;;;;;3.67;2.50;;;11.60;99.90;;;;;;4980397;28;20735;-69
2021/10/05 03:35:46;;;;;;;2.50;2.30;;;11.50;99.90;;;;;;4993665;28;20639;-69
2021/10/05 03:38:15;;;;;;;2.40;2.27;;;11.60;99.90;;;;;;4992732;28;20209;-69
2021/10/05 03:40:42;;;;;;;3.10;2.40;;;11.60;99.90;;;;;;4992185;28;20248;-69
2021/10/05 03:43:09;;;;;;;2.77;2.47;;;11.50;99.90;;;;;;4993210;28;20197;-68
2021/10/05 03:45:36;;;;;;;4.37;2.50;;;11.50;99.90;;;;;;4991524;28;20264;-69
2021/10/05 03:48:03;;;;;;;2.60;2.40;;;11.50;99.90;;;;;;4987402;28;20267;-68
2021/10/05 03:50:30;;;;;;;2.50;2.20;;;11.50;99.90;;;;;;4991491;28;20196;-69
2021/10/05 03:52:57;;;;;;;2.57;2.37;;;11.50;99.90;;;;;;4989980;28;20205;-69
2021/10/05 03:55:25;;;;;;;3.07;2.30;;;11.40;99.90;;;;;;4993356;28;20545;-68
2021/10/05 03:57:52;;;;;;;3.10;2.47;;;11.50;99.90;;;;;;4985755;28;20575;-69
2021/10/05 04:00:19;;;;;;;2.60;2.40;;;11.50;99.90;;;;;;4992929;28;20217;-69
2021/10/05 04:02:46;;;;;;;4.97;2.43;;;11.50;99.90;;;;;;4991509;28;20201;-69
2021/10/05 04:05:13;;;;;;;2.20;2.00;;;11.50;99.90;;;;;;4988201;28;20212;-69
2021/10/05 04:07:40;;;;;;;2.60;2.20;;;11.50;99.90;;;;;;4992092;28;20243;-69
2021/10/05 04:10:08;;;;;;;2.60;2.40;;;11.60;99.90;;;;;;4991383;28;20569;-68
2021/10/05 04:12:37;;;;;;;2.60;2.40;;;11.60;99.90;;;;;;4993733;28;20229;-69
2021/10/05 04:15:05;;;;;;;4.03;2.30;;;11.60;99.90;;;;;;4992914;28;20201;-69
2021/10/05 04:17:32;;;;;;;3.07;2.57;;;11.60;99.90;;;;;;4986861;28;20232;-69
2021/10/05 04:19:59;;;;;;;2.73;2.50;;;11.60;99.90;;;;;;4994092;28;20205;-69
2021/10/05 04:22:28;;;;;;;3.47;2.20;;;11.60;99.90;;;;;;4990197;28;20217;-68
2021/10/05 04:24:55;;;;;;;3.20;2.90;;;11.60;99.90;;;;;;4990528;28;20206;-69
2021/10/05 04:27:22;;;;;;;5.30;2.73;;;11.70;99.90;;;;;;4988008;28;20233;-69
2021/10/05 04:29:50;;;;;;;2.70;2.20;;;11.70;99.90;;;;;;4985936;28;20201;-68
2021/10/05 04:32:18;;;;;;;4.27;2.33;;;11.60;99.90;;;;;;4987139;28;20722;-68
2021/10/05 04:34:47;;;;;;;2.67;2.10;;;11.60;99.90;;;;;;4987729;28;20256;-68
2021/10/05 04:37:14;;;;;;;3.40;1.87;;;11.60;99.90;;;;;;4986382;28;20205;-69
2021/10/05 04:39:41;;;;;;;2.37;2.17;;;11.70;99.90;;;;;;4996473;28;20248;-68
2021/10/05 04:42:08;;;;;;;2.80;2.40;;;11.70;99.90;;;;;;4992912;28;20232;-69
2021/10/05 04:44:35;;;;;;;3.20;2.37;;;11.70;99.90;;;;;;4990881;28;20248;-69
2021/10/05 04:47:04;;;;;;;3.13;2.00;;;11.80;99.90;;;;;;4993097;28;20225;-69
2021/10/05 04:49:31;;;;;;;3.17;2.33;;;11.80;99.90;;;;;;4986452;28;20217;-69
2021/10/05 04:51:58;;;;;;;6.50;4.93;;;11.80;99.90;;;;;;4991611;28;20268;-69
2021/10/05 04:54:25;;;;;;;3.13;2.60;;;11.80;99.90;;;;;;4989179;28;20206;-69
2021/10/05 04:56:52;;;;;;;2.17;1.97;;;11.80;99.90;;;;;;4991111;28;20197;-69
2021/10/05 04:59:20;;;;;;;2.90;1.90;;;11.80;99.90;;;;;;4987685;28;20783;-69
2021/10/05 05:01:47;;;;;;;3.07;2.10;;;11.80;99.90;;;;;;4985305;28;20201;-69
2021/10/05 05:04:16;;;;;;;2.63;2.30;;;11.80;99.90;;;;;;4991236;28;20205;-69
2021/10/05 05:06:44;;;;;;;2.53;2.33;;;11.80;99.90;;;;;;4991150;28;20229;-69
2021/10/05 05:09:11;;;;;;;4.57;2.47;;;11.80;99.90;;;;;;4989869;28;20204;-69
2021/10/05 05:11:38;;;;;;;5.40;2.80;;;11.80;99.90;;;;;;4990790;28;20201;-69
2021/10/05 05:14:07;;;;;;;4.17;2.60;;;11.80;99.90;;;;;;4992259;28;20237;-69
2021/10/05 05:16:35;;;;;;;5.10;3.03;;;11.80;99.90;;;;;;4995802;28;20243;-69
2021/10/05 05:19:02;;;;;;;4.70;2.53;;;11.80;99.90;;;;;;4994850;28;20202;-69
2021/10/05 05:21:30;;;;;;;2.93;2.47;;;11.80;99.90;;;;;;4988406;28;20729;-69
2021/10/05 05:23:58;;;;;;;3.73;2.43;;;11.90;99.90;;;;;;4982137;28;20205;-69
2021/10/05 05:26:25;;;;;;;2.53;2.20;;;11.90;99.90;;;;;;4982947;28;20643;-69
2021/10/05 05:28:53;;;;;;;4.23;2.83;;;11.90;99.90;;;;;;4994505;28;20201;-69
2021/10/05 05:31:20;;;;;;;5.00;2.60;;;11.90;99.90;;;;;;4988531;28;20210;-69
2021/10/05 05:33:47;;;;;;;2.80;2.10;;;11.90;99.90;;;;;;4986097;28;20261;-69
2021/10/05 05:36:14;;;;;;;4.27;2.30;;;12.00;99.90;;;;;;4985455;28;20201;-69
2021/10/05 05:38:42;;;;;;;3.30;2.43;;;12.00;99.90;;;;;;4990868;28;20232;-69
2021/10/05 05:41:09;;;;;;;2.73;2.20;;;12.00;99.90;;;;;;4983043;28;20201;-69
2021/10/05 05:43:37;;;;;;;3.60;2.50;;;11.90;99.90;;;;;;4987331;28;20279;-69
2021/10/05 05:46:04;;;;;;;4.13;2.23;;;11.90;99.90;;;;;;4992131;28;20268;-69
2021/10/05 05:48:31;;;;;;;2.33;2.10;;;12.00;99.90;;;;;;4987657;28;20263;-69
2021/10/05 05:50:58;;;;;;;3.67;2.03;;;11.90;99.90;;;;;;4987747;28;20236;-69
2021/10/05 05:53:25;;;;;;;2.00;1.70;;;11.90;99.90;;;;;;4988326;28;20205;-69
2021/10/05 05:55:53;;;;;;;3.20;2.10;;;11.90;99.90;;;;;;4991549;28;20209;-69
2021/10/05 05:58:20;;;;;;;1.87;1.67;;;11.90;99.90;;;;;;4993528;28;20205;-69
2021/10/05 06:00:48;;;;;;;2.10;1.90;;;11.90;99.90;;;;;;4995186;28;20614;-69
2021/10/05 06:03:16;;;;;;;1.97;1.80;;;11.90;99.90;;;;;;4984748;28;20275;-69
2021/10/05 06:05:43;;;;;;;1.93;1.77;;;12.00;99.90;;;;;;4989454;28;20201;-69
2021/10/05 06:08:10;;;;;;;2.60;1.93;;;12.00;99.90;;;;;;4994255;28;20261;-69
2021/10/05 06:10:37;;;;;;;3.80;2.20;;;12.00;99.90;;;;;;4991734;28;20201;-68
2021/10/05 06:13:06;;;;;;;1.83;1.73;;;12.00;99.90;;;;;;4993020;28;20204;-69
2021/10/05 06:15:34;;;;;;;3.00;1.83;;;11.90;99.90;;;;;;4991184;28;20205;-69
2021/10/05 06:18:02;;;;;;;1.93;1.63;;;11.80;99.90;;;;;;4990293;28;20573;-69
2021/10/05 06:20:30;;;;;;;5.63;2.30;;;11.80;99.90;;;;;;4991630;28;20263;-69
2021/10/05 06:22:57;;;;;;;2.60;2.00;;;11.90;99.90;;;;;;4989002;28;20656;-69
2021/10/05 06:25:27;;;;;;;1.80;1.60;;;11.90;99.90;;;;;;4990589;28;20252;-69
2021/10/05 06:27:56;;;;;;;2.00;1.80;;;11.90;99.90;;;;;;4990451;28;20264;-69
2021/10/05 06:30:26;;;;;;;2.20;1.87;;;11.90;99.90;;;;;;4987443;28;20217;-69
2021/10/05 06:32:54;;;;;;;4.17;2.07;;;12.00;99.90;;;;;;4991818;28;20248;-69
2021/10/05 06:35:23;;;;;;;2.23;2.03;;;12.00;99.90;;;;;;4989806;28;20652;-69
2021/10/05 06:37:51;;;;;;;3.37;2.13;;;12.00;99.90;;;;;;4998447;28;20296;-69
2021/10/05 06:40:19;;;;;;;4.43;1.67;;;12.00;99.90;;;;;;4996656;28;20213;-69
2021/10/05 06:42:46;;;;;;;2.10;1.90;;;11.90;99.90;;;;;;4996419;28;20598;-69
2021/10/05 06:45:13;;;;;;;2.53;1.70;;;11.90;99.90;;;;;;4995565;28;20200;-69
2021/10/05 06:47:41;;;;;;;1.60;1.50;;;12.00;99.90;;;;;;4993809;28;20279;-69
2021/10/05 06:50:09;;;;;;;1.73;1.63;;;12.00;99.90;;;;;;4997206;28;20266;-69
2021/10/05 06:52:36;;;;;;;1.90;1.80;;;12.00;99.90;;;;;;4996520;28;20274;-69
2021/10/05 06:55:04;;;;;;;1.83;1.73;;;12.00;99.90;;;;;;4996963;28;20200;-69
2021/10/05 06:57:31;;;;;;;2.50;2.00;;;11.90;99.90;;;;;;4996533;28;20619;-69
2021/10/05 06:59:58;;;;;;;2.87;1.97;;;12.00;99.90;;;;;;4996596;28;20217;-69
2021/10/05 07:02:25;;;;;;;2.63;2.00;;;12.00;99.90;;;;;;4994516;28;20229;-69
2021/10/05 07:04:54;;;;;;;3.90;2.27;;;12.00;99.90;;;;;;4987313;28;20237;-69
2021/10/05 07:07:21;;;;;;;2.37;2.17;;;12.00;99.90;;;;;;4991691;28;20715;-69
2021/10/05 07:09:48;;;;;;;3.87;2.83;;;12.10;99.90;;;;;;4992336;28;20256;-69
2021/10/05 07:12:15;;;;;;;4.10;2.80;;;12.10;99.90;;;;;;4990435;28;20206;-69
2021/10/05 07:14:42;;;;;;;4.13;2.70;;;12.10;99.90;;;;;;4991663;28;20205;-69
2021/10/05 07:17:09;;;;;;;4.07;2.97;;;12.10;99.90;;;;;;4994760;28;20306;-69
2021/10/05 07:19:36;;;;;;;5.30;2.90;;;12.10;99.90;;;;;;4993517;28;20613;-69
2021/10/05 07:22:05;;;;;;;3.83;2.90;;;12.10;99.90;;;;;;4988776;28;20292;-69
2021/10/05 07:24:32;;;;;;;4.77;3.10;;;12.10;99.90;;;;;;4987968;28;20304;-69
2021/10/05 07:26:59;;;;;;;2.90;2.50;;;12.10;99.90;;;;;;4992850;28;20247;-69
2021/10/05 07:29:26;;;;;;;4.83;2.30;;;12.20;99.90;;;;;;4993277;28;20232;-69
2021/10/05 07:31:53;;;;;;;3.17;2.50;;;12.20;99.90;;;;;;4994643;28;20633;-69
2021/10/05 07:34:20;;;;;;;5.63;2.60;;;12.20;99.90;;;;;;4992153;28;20205;-69
2021/10/05 07:36:49;;;;;;;5.17;2.70;;;12.20;99.90;;;;;;4985584;28;20212;-69
2021/10/05 07:39:18;;;;;;;4.77;2.70;;;12.30;99.90;;;;;;4988771;28;20209;-69
2021/10/05 07:41:45;;;;;;;3.40;2.47;;;12.20;99.90;;;;;;4993380;28;20217;-69
2021/10/05 07:44:12;;;;;;;3.30;2.93;;;12.30;99.90;;;;;;4990190;28;20205;-69
2021/10/05 07:46:39;;;;;;;4.30;2.70;;;12.30;99.90;;;;;;4989263;28;20291;-69
2021/10/05 07:49:07;;;;;;;5.50;2.80;;;12.10;99.90;;;;;;4975766;28;20253;-69
2021/10/05 07:51:34;;;;;;;3.77;2.63;;;12.40;99.90;;;;;;4990667;28;20209;-69
2021/10/05 07:54:02;;;;;;;4.07;2.80;;;12.30;99.90;;;;;;4988542;28;20213;-69
2021/10/05 07:56:31;;;;;;;3.87;2.90;;;12.30;99.90;;;;;;4977395;28;20212;-69
2021/10/05 07:58:58;;;;;;;4.17;2.90;;;12.30;99.90;;;;;;4984457;28;20663;-69
2021/10/05 08:01:26;;;;;;;6.00;3.33;;;12.30;99.90;;;;;;4984445;28;20263;-70
2021/10/05 08:03:54;;;;;;;3.17;2.87;;;12.40;99.90;;;;;;4985002;28;20205;-70
2021/10/05 08:06:21;;;;;;;4.10;3.37;;;12.40;99.90;;;;;;4977288;28;20264;-69
2021/10/05 08:08:48;;;;;;;5.77;3.77;;;12.30;99.90;;;;;;4983659;28;20267;-69
2021/10/05 08:11:16;;;;;;;4.10;3.70;;;12.30;99.90;;;;;;4983577;28;20210;-69
2021/10/05 08:13:44;;;;;;;7.00;3.70;;;12.30;99.90;;;;;;4986360;28;20294;-70
2021/10/05 08:16:11;;;;;;;5.63;3.40;;;12.30;99.90;;;;;;4981075;28;20209;-69
2021/10/05 08:18:38;;;;;;;6.97;4.00;;;12.30;99.90;;;;;;4982402;28;20212;-69
2021/10/05 08:21:05;;;;;;;7.37;3.60;;;12.30;99.90;;;;;;4972475;28;20291;-69
2021/10/05 08:23:32;;;;;;;5.77;3.63;;;12.40;99.90;;;;;;4991317;28;20672;-69
2021/10/05 08:25:59;;;;;;;7.17;3.57;;;12.40;99.90;;;;;;4983123;28;20296;-69
2021/10/05 08:28:26;;;;;;;5.90;3.93;;;12.50;99.90;;;;;;4985372;28;20557;-69
2021/10/05 08:30:55;;;;;;;3.83;3.30;;;12.50;99.90;;;;;;4981943;28;20205;-69
2021/10/05 08:33:22;;;;;;;4.97;3.83;;;12.50;99.90;;;;;;4984789;28;20205;-69
2021/10/05 08:35:50;;;;;;;5.13;3.73;;;12.50;99.90;;;;;;4982145;28;20209;-69
2021/10/05 08:38:17;;;;;;;4.67;3.60;;;12.50;99.90;;;;;;4985627;28;20212;-69
2021/10/05 08:40:44;;;;;;;5.90;3.43;;;12.40;99.90;;;;;;4984518;28;20201;-69
2021/10/05 08:43:12;;;;;;;4.37;3.27;;;12.40;99.90;;;;;;4987097;28;20209;-69
2021/10/05 08:45:39;;;;;;;2.73;2.50;;;12.40;99.90;;;;;;4988339;28;20205;-69
2021/10/05 08:48:09;;;;;;;3.43;2.80;;;12.30;99.90;;;;;;4980340;28;20221;-69
2021/10/05 08:50:36;;;;;;;3.13;2.80;;;12.30;99.90;;;;;;4986656;28;20651;-69
2021/10/05 08:53:03;;;;;;;3.93;2.47;;;12.30;99.90;;;;;;4987701;28;20215;-69
2021/10/05 08:55:30;;;;;;;4.80;2.87;;;12.40;99.90;;;;;;4996264;28;20205;-69
2021/10/05 08:57:57;;;;;;;5.00;3.07;;;12.40;99.90;;;;;;4986208;28;20240;-69
2021/10/05 09:00:24;;;;;;;3.90;2.77;;;12.40;99.90;;;;;;4984835;28;20237;-69
2021/10/05 09:02:53;;;;;;;5.67;2.50;;;12.40;99.90;;;;;;4987620;28;20240;-69
2021/10/05 09:05:23;;;;;;;5.93;2.43;;;12.50;99.90;;;;;;4981434;28;20260;-69
2021/10/05 09:07:51;;;;;;;3.93;2.27;;;12.40;99.90;;;;;;4987384;28;20229;-69
2021/10/05 09:10:21;;;;;;;3.67;2.10;;;12.50;99.90;;;;;;5000498;28;20212;-69
2021/10/05 09:12:49;;;;;;;1.83;1.73;;;12.50;99.90;;;;;;4985840;28;20212;-69
2021/10/05 09:15:18;;;;;;;1.87;1.70;;;12.40;99.90;;;;;;4985052;28;20237;-69
2021/10/05 09:17:51;;;;;;;2.53;1.90;;;12.50;99.90;;;;;;4980074;28;20245;-69
2021/10/05 09:20:22;;;;;;;3.30;2.13;;;12.50;99.90;;;;;;4986710;28;20205;-69
2021/10/05 09:23:01;;;;;;;3.23;2.20;;;12.60;99.90;;;;;;4986537;28;20224;-69
2021/10/05 09:25:31;;;;;;;2.17;2.00;;;12.50;99.90;;;;;;4985263;28;20240;-69
2021/10/05 09:27:59;;;;;;;3.20;1.70;;;12.50;99.90;;;;;;4987668;28;20233;-69
2021/10/05 09:30:26;;;;;;;2.70;1.70;;;12.40;99.90;;;;;;4987979;28;20275;-69
2021/10/05 09:33:01;;;;;;;2.50;1.83;;;12.50;99.90;;;;;;4987421;28;20580;-69
2021/10/05 09:35:43;;;;;;;3.43;2.17;;;12.60;99.90;;;;;;4984759;28;20205;-69
2021/10/05 09:38:11;;;;;;;3.37;2.50;;;12.70;99.90;;;;;;4979164;28;20231;-70
2021/10/05 09:40:39;;;;;;;3.20;2.07;;;12.80;99.90;;;;;;4983076;28;20593;-69
2021/10/05 09:43:19;;;;;;;2.43;1.87;;;12.90;99.90;;;;;;4983397;28;20202;-69
2021/10/05 09:45:46;;;;;;;4.17;2.30;;;13.00;99.90;;;;;;4965960;28;20235;-69
2021/10/05 09:48:13;;;;;;;2.97;2.37;;;12.90;99.90;;;;;;4987367;28;20225;-69
2021/10/05 09:50:42;;;;;;;2.13;1.60;;;12.70;99.90;;;;;;4988318;28;20201;-69
2021/10/05 09:53:13;;;;;;;2.70;1.70;;;12.90;99.90;;;;;;4985129;28;20229;-69
2021/10/05 09:55:42;;;;;;;4.10;1.90;;;12.80;99.90;;;;;;4980493;28;20201;-69
2021/10/05 09:58:10;;;;;;;2.97;1.73;;;12.80;99.90;;;;;;4979088;28;20241;-70
2021/10/05 10:00:40;;;;;;;2.80;1.70;;;12.80;99.90;;;;;;4981016;28;20223;-70
2021/10/05 10:03:08;;;;;;;2.23;1.60;;;12.80;99.90;;;;;;4978868;28;20528;-70
2021/10/05 10:05:37;;;;;;;1.53;1.43;;;13.00;99.90;;;;;;4982817;28;20671;-70
2021/10/05 10:08:07;;;;;;;1.63;1.30;;;13.10;99.90;;;;;;4986342;28;20751;-70
2021/10/05 10:10:36;;;;;;;2.83;1.57;;;13.20;99.90;;;;;;4980363;28;20737;-70
2021/10/05 10:13:05;;;;;;;2.27;1.53;;;13.20;99.90;;;;;;4978889;28;20206;-70
2021/10/05 10:15:34;;;;;;;1.40;1.30;;;13.30;99.90;;;;;;4987373;28;20213;-70
2021/10/05 10:18:06;;;;;;;3.20;1.67;;;13.40;99.90;;;;;;4983872;28;20611;-70
2021/10/05 10:20:34;;;;;;;3.10;2.20;;;13.50;99.90;;;;;;4986741;28;20233;-70
2021/10/05 10:23:02;;;;;;;1.90;1.70;;;13.50;99.90;;;;;;4987185;28;20664;-70
2021/10/05 10:25:33;;;;;;;2.17;1.90;;;13.50;99.90;;;;;;4987261;28;20267;-69
2021/10/05 10:28:13;;;;;;;4.20;1.87;;;13.50;99.90;;;;;;4988643;28;20225;-69
2021/10/05 10:30:50;;;;;;;2.43;1.70;;;13.60;99.90;;;;;;4990363;28;20602;-69
2021/10/05 10:33:20;;;;;;;4.17;1.87;;;13.60;99.90;;;;;;4972853;28;20211;-69
2021/10/05 10:35:51;;;;;;;3.10;2.00;;;13.80;99.90;;;;;;4987008;28;20205;-69
2021/10/05 10:38:26;;;;;;;3.83;1.63;;;13.50;99.90;;;;;;4990746;28;20347;-69
2021/10/05 10:40:55;;;;;;;2.97;2.13;;;13.40;99.90;;;;;;4990774;28;20622;-69
2021/10/05 10:43:25;;;;;;;3.33;2.37;;;13.60;99.90;;;;;;4988989;28;20205;-69
2021/10/05 10:45:54;;;;;;;5.03;2.00;;;13.40;99.90;;;;;;4988532;28;20300;-70
2021/10/05 10:48:29;;;;;;;4.03;1.83;;;13.50;99.90;;;;;;4990631;28;20229;-69
2021/10/05 10:50:58;;;;;;;1.87;1.77;;;13.40;99.90;;;;;;4990232;28;20270;-69
2021/10/05 10:53:37;;;;;;;5.70;2.47;;;13.60;99.90;;;;;;4989217;28;20611;-70
2021/10/05 10:56:07;;;;;;;2.87;2.23;;;13.70;99.90;;;;;;4985867;28;20217;-69
2021/10/05 10:58:40;;;;;;;2.70;2.30;;;13.70;99.90;;;;;;4990110;28;20200;-69
2021/10/05 11:01:08;;;;;;;2.60;2.20;;;13.80;99.90;;;;;;4986779;28;20217;-69
2021/10/05 11:03:36;;;;;;;4.80;1.97;;;14.00;99.90;;;;;;4990249;28;20201;-70
2021/10/05 11:06:13;;;;;;;3.90;2.27;;;14.00;99.90;;;;;;4989462;28;20607;-69
2021/10/05 11:08:40;;;;;;;2.30;2.10;;;14.20;99.90;;;;;;4981583;28;20307;-70
2021/10/05 11:11:09;;;;;;;2.47;1.80;;;14.10;99.90;;;;;;4982999;28;20699;-70
2021/10/05 11:13:45;;;;;;;2.77;1.97;;;14.30;99.90;;;;;;4986483;28;20837;-70
2021/10/05 11:16:12;;;;;;;1.87;1.40;;;14.40;99.90;;;;;;4965729;28;20201;-70
2021/10/05 11:18:39;;;;;;;2.93;1.60;;;14.30;99.90;;;;;;4988494;28;20197;-70
2021/10/05 11:21:09;;;;;;;4.53;1.60;;;14.10;99.90;;;;;;4993117;28;20660;-70
2021/10/05 11:23:44;;;;;;;4.30;1.83;;;14.10;99.90;;;;;;4993917;28;20239;-70
2021/10/05 11:26:12;;;;;;;4.77;1.80;;;14.20;99.90;;;;;;4974914;28;20258;-70
2021/10/05 11:28:45;;;;;;;2.27;1.87;;;14.10;99.90;;;;;;4993294;28;20225;-70
2021/10/05 11:31:15;;;;;;;4.30;1.90;;;14.40;99.90;;;;;;4989551;28;20216;-70
2021/10/05 11:33:42;;;;;;;2.17;1.80;;;14.20;99.90;;;;;;4989521;28;20760;-70
2021/10/05 11:36:14;;;;;;;4.23;1.93;;;14.40;99.90;;;;;;4993389;28;20205;-70
2021/10/05 11:38:43;;;;;;;2.30;2.10;;;14.80;99.90;;;;;;4994589;28;20248;-70
2021/10/05 11:41:12;;;;;;;3.27;1.67;;;14.90;99.90;;;;;;4991319;28;20233;-69
2021/10/05 11:43:41;;;;;;;2.20;2.00;;;15.10;99.90;;;;;;4992114;28;20198;-70
2021/10/05 11:46:12;;;;;;;1.70;1.60;;;15.20;99.90;;;;;;4993876;28;20205;-69
2021/10/05 11:48:40;;;;;;;2.70;1.80;;;15.00;99.90;;;;;;4994124;28;20228;-70
2021/10/05 11:51:08;;;;;;;1.60;1.50;;;15.10;99.90;;;;;;4985942;28;20232;-69
2021/10/05 11:53:35;;;;;;;1.60;1.50;;;15.20;99.90;;;;;;4995872;28;20220;-70
2021/10/05 11:56:08;;;;;;;1.70;1.60;;;15.10;99.90;;;;;;4990543;28;20197;-70
2021/10/05 11:58:48;;;;;;;2.08;1.33;;;15.10;99.90;;;;;;4994103;28;20713;-69
2021/10/05 12:01:22;;;;;;;2.22;1.30;;;15.00;99.90;;;;;;4993140;28;20288;-70
2021/10/05 12:03:50;;;;;;;2.73;1.33;;;15.10;99.90;;;;;;4989354;28;20241;-70
2021/10/05 12:06:28;;;;;;;1.50;1.40;;;15.20;99.90;;;;;;4986971;28;20205;-70
2021/10/05 12:08:55;;;;;;;2.67;1.80;;;15.20;99.90;;;;;;4984067;28;20232;-70
2021/10/05 12:11:23;;;;;;;2.33;1.70;;;15.30;99.90;;;;;;4988079;28;20548;-70
2021/10/05 12:14:01;;;;;;;2.00;1.80;;;15.20;99.90;;;;;;4986237;28;20271;-70
2021/10/05 12:16:28;;;;;;;1.95;1.65;;;15.00;99.90;;;;;;4989507;28;20208;-70
2021/10/05 12:18:56;;;;;;;2.20;1.57;;;15.10;99.90;;;;;;4988230;28;20294;-70
2021/10/05 12:21:24;;;;;;;1.90;1.30;;;15.10;99.90;;;;;;4982105;28;20221;-70
2021/10/05 12:23:53;;;;;;;4.47;3.43;;;15.20;99.90;;;;;;4989203;28;20209;-70
2021/10/05 12:26:21;;;;;;;5.90;4.67;;;15.20;99.90;;;;;;4988443;28;20268;-70
2021/10/05 12:29:04;;;;;;;2.90;1.53;;;15.20;99.90;;;;;;4990389;28;20379;-71
2021/10/05 12:31:32;;;;;;;2.33;1.90;;;15.40;99.90;;;;;;4982547;28;20240;-70
2021/10/05 12:34:03;;;;;;;1.70;1.60;;;15.40;99.90;;;;;;4990966;28;20691;-70
2021/10/05 12:36:32;;;;;;;1.73;1.50;;;15.40;99.90;;;;;;4986536;28;20205;-70
2021/10/05 12:39:09;;;;;;;1.85;1.58;;;15.40;99.90;;;;;;4986528;28;20205;-70
2021/10/05 12:41:36;;;;;;;1.70;1.60;;;15.50;99.90;;;;;;4986217;28;20209;-70
2021/10/05 12:44:13;;;;;;;4.77;2.30;;;15.30;99.90;;;;;;4988762;28;20217;-70
2021/10/05 12:46:40;;;;;;;1.25;0.90;;;15.40;99.90;;;;;;4986868;28;20216;-70
2021/10/05 12:49:12;;;;;;;1.10;0.90;;;15.70;99.90;;;;;;4987415;28;20264;-70
2021/10/05 12:51:45;;;;;;;3.77;1.70;;;15.80;99.90;;;;;;4984226;28;20233;-70
2021/10/05 12:54:12;;;;;;;2.67;1.33;;;16.10;99.90;;;;;;4984310;28;20558;-70
2021/10/05 12:56:40;;;;;;;4.75;1.75;;;16.00;99.90;;;;;;4981406;28;20564;-70